Time;durP1;ratioP1;P1;durP2;ratioP2;P2;SDS_P1;SDS_P2;PMS_P1;PMS_P2;Temp;Humidity;BMP_temperature;BMP_pressure;BME280_temperature;BME280_humidity;BME280_pressure;Samples;Min_cycle;Max_cycle;Signal;HPM_P1;HPM_P2
2021/01/18 00:00:27;;;;;;;20.00;10.37;;;-6.90;45.20;;;;;;5093927;28;20426;-73
2021/01/18 00:02:53;;;;;;;22.57;9.40;;;-6.90;45.20;;;;;;5094094;28;20047;-72
2021/01/18 00:05:19;;;;;;;22.77;9.87;;;-6.90;45.30;;;;;;5094613;28;20547;-73
2021/01/18 00:07:47;;;;;;;21.03;10.20;;;-6.80;45.30;;;;;;5094890;28;20032;-71
2021/01/18 00:10:16;;;;;;;18.43;9.67;;;-6.80;45.20;;;;;;5093695;28;20130;-74
2021/01/18 00:12:53;;;;;;;21.27;10.03;;;-6.80;45.30;;;;;;5095994;28;20028;-73
2021/01/18 00:15:21;;;;;;;23.97;9.67;;;-6.80;45.20;;;;;;5093777;28;20227;-73
2021/01/18 00:17:47;;;;;;;20.90;8.97;;;-6.80;45.10;;;;;;5093563;28;20032;-73
2021/01/18 00:20:16;;;;;;;20.30;8.93;;;-6.90;45.30;;;;;;5093860;28;20122;-74
2021/01/18 00:22:43;;;;;;;26.87;10.37;;;-6.90;45.40;;;;;;5093397;28;20113;-74
2021/01/18 00:25:27;;;;;;;20.37;9.73;;;-6.90;45.50;;;;;;5094985;28;20035;-75
2021/01/18 00:27:53;;;;;;;20.37;8.70;;;-6.90;45.60;;;;;;5093343;28;20035;-74
2021/01/18 00:30:21;;;;;;;18.60;8.37;;;-6.90;45.60;;;;;;5092872;28;20569;-74
2021/01/18 00:32:48;;;;;;;21.60;9.33;;;-6.90;45.70;;;;;;5094640;28;20024;-73
2021/01/18 00:35:16;;;;;;;21.07;10.27;;;-6.80;45.70;;;;;;5093255;28;20438;-73
2021/01/18 00:37:50;;;;;;;22.60;9.60;;;-6.80;45.70;;;;;;5094239;28;20044;-73
2021/01/18 00:40:21;;;;;;;23.93;10.80;;;-6.80;45.80;;;;;;5093702;28;20381;-72
2021/01/18 00:42:48;;;;;;;22.97;10.07;;;-6.90;45.70;;;;;;5076352;28;20073;-72
2021/01/18 00:45:15;;;;;;;18.13;8.57;;;-6.80;45.80;;;;;;5094327;28;20035;-72
2021/01/18 00:47:47;;;;;;;22.10;9.50;;;-6.90;45.80;;;;;;5092800;28;20067;-73
2021/01/18 00:50:19;;;;;;;18.73;9.20;;;-6.90;45.90;;;;;;5076490;28;20039;-74
2021/01/18 00:52:47;;;;;;;22.40;9.60;;;-6.90;46.10;;;;;;5073957;28;20119;-77
2021/01/18 00:55:20;;;;;;;22.73;10.43;;;-6.90;46.10;;;;;;5040300;28;20032;-74
2021/01/18 00:58:13;;;;;;;20.23;9.93;;;-6.80;46.20;;;;;;5072878;28;20033;-73
2021/01/18 01:00:45;;;;;;;21.47;8.70;;;-6.80;46.00;;;;;;5056088;28;20489;-72
2021/01/18 01:03:14;;;;;;;18.30;10.07;;;-6.80;46.00;;;;;;5056028;28;20048;-74
2021/01/18 01:05:40;;;;;;;20.73;9.57;;;-6.90;46.20;;;;;;5073582;28;20041;-74
2021/01/18 01:08:06;;;;;;;21.67;9.53;;;-6.80;46.30;;;;;;5055931;28;20071;-74
2021/01/18 01:10:34;;;;;;;20.00;9.43;;;-6.80;46.40;;;;;;5055694;28;20074;-75
2021/01/18 01:13:05;;;;;;;23.40;10.03;;;-6.90;46.30;;;;;;5055375;28;20086;-73
2021/01/18 01:15:32;;;;;;;22.87;10.57;;;-6.80;46.40;;;;;;5038980;28;20135;-75
2021/01/18 01:17:58;;;;;;;20.80;9.50;;;-6.80;46.40;;;;;;5073505;28;20481;-77
2021/01/18 01:20:26;;;;;;;22.57;9.47;;;-6.80;46.30;;;;;;5056269;28;20099;-77
2021/01/18 01:22:53;;;;;;;24.97;10.67;;;-6.90;46.30;;;;;;5073847;28;20036;-75
2021/01/18 01:25:21;;;;;;;23.90;10.53;;;-6.90;46.30;;;;;;5073094;28;20571;-77
2021/01/18 01:27:48;;;;;;;25.80;11.37;;;-6.80;46.00;;;;;;5055837;28;20041;-75
2021/01/18 01:30:18;;;;;;;23.90;11.10;;;-6.90;45.90;;;;;;5073540;28;20088;-74
2021/01/18 01:32:47;;;;;;;19.33;11.00;;;-6.90;46.50;;;;;;5073457;28;20039;-73
2021/01/18 01:35:14;;;;;;;24.23;10.90;;;-6.90;45.80;;;;;;5073032;28;20074;-74
2021/01/18 01:37:40;;;;;;;23.40;11.57;;;-6.90;45.70;;;;;;5072944;28;20124;-76
2021/01/18 01:40:09;;;;;;;22.97;11.37;;;-7.00;46.40;;;;;;5055168;28;20081;-75
2021/01/18 01:42:35;;;;;;;25.73;12.43;;;-7.00;45.90;;;;;;5054477;28;20511;-74
2021/01/18 01:45:02;;;;;;;25.23;12.03;;;-6.90;45.70;;;;;;5072829;28;20047;-75
2021/01/18 01:47:47;;;;;;;25.17;12.37;;;-6.90;45.80;;;;;;5055441;28;20424;-75
2021/01/18 01:50:19;;;;;;;32.40;13.83;;;-6.90;45.70;;;;;;5055011;28;20051;-73
2021/01/18 01:52:56;;;;;;;27.90;13.17;;;-7.00;45.80;;;;;;5038280;28;20763;-75
2021/01/18 01:55:31;;;;;;;28.60;13.43;;;-6.90;45.70;;;;;;5038524;28;20037;-75
2021/01/18 01:58:01;;;;;;;30.48;14.15;;;-6.90;45.70;;;;;;5055202;28;20051;-74
2021/01/18 02:00:36;;;;;;;33.77;14.07;;;-6.80;45.70;;;;;;5072525;28;20044;-75
2021/01/18 02:03:15;;;;;;;30.77;12.90;;;-6.90;45.70;;;;;;5038036;28;20523;-75
2021/01/18 02:05:42;;;;;;;32.50;13.80;;;-6.90;45.80;;;;;;5038951;28;20472;-75
2021/01/18 02:08:10;;;;;;;30.73;14.23;;;-6.90;45.90;;;;;;5072820;28;20485;-75
2021/01/18 02:10:37;;;;;;;30.33;13.93;;;-6.90;45.80;;;;;;5054811;28;20025;-73
2021/01/18 02:13:19;;;;;;;25.80;12.97;;;-6.90;45.80;;;;;;5054506;28;20119;-73
2021/01/18 02:16:06;;;;;;;32.20;14.17;;;-6.90;45.80;;;;;;5054658;28;20523;-74
2021/01/18 02:19:11;;;;;;;29.97;13.03;;;-6.90;45.80;;;;;;5055177;28;20041;-74
2021/01/18 02:22:05;;;;;;;28.27;12.57;;;-7.00;45.80;;;;;;5000547;28;20041;-73
2021/01/18 02:24:51;;;;;;;25.33;12.50;;;-7.00;45.70;;;;;;5055088;28;20028;-78
2021/01/18 02:27:33;;;;;;;26.00;12.80;;;-7.00;45.70;;;;;;5021990;28;20105;-74
2021/01/18 02:30:32;;;;;;;30.10;12.53;;;-7.00;45.70;;;;;;5072821;28;20040;-73
2021/01/18 02:33:20;;;;;;;29.00;12.57;;;-6.90;45.70;;;;;;5054514;28;20082;-76
2021/01/18 02:36:07;;;;;;;30.90;12.67;;;-7.00;45.70;;;;;;5038279;28;20044;-76
2021/01/18 02:38:59;;;;;;;27.93;13.77;;;-6.90;45.70;;;;;;5054444;28;20067;-73
2021/01/18 02:41:53;;;;;;;26.17;11.93;;;-6.90;45.50;;;;;;5072692;28;20040;-74
2021/01/18 02:44:22;;;;;;;27.67;12.90;;;-7.00;45.40;;;;;;5054839;28;20076;-73
2021/01/18 02:46:49;;;;;;;28.87;12.13;;;-7.10;45.40;;;;;;5072013;28;20043;-73
2021/01/18 02:49:20;;;;;;;29.60;12.80;;;-7.10;45.70;;;;;;5037580;28;20190;-74
2021/01/18 02:51:52;;;;;;;26.47;12.70;;;-7.10;45.50;;;;;;5054463;28;20123;-74
2021/01/18 02:54:18;;;;;;;30.97;13.60;;;-7.10;45.40;;;;;;5065676;28;20048;-73
2021/01/18 02:56:53;;;;;;;26.87;12.30;;;-7.10;45.20;;;;;;5096447;28;20047;-73
2021/01/18 02:59:20;;;;;;;25.70;11.98;;;-7.10;45.20;;;;;;5096473;28;20503;-74
2021/01/18 03:02:09;;;;;;;29.87;12.77;;;-7.10;45.30;;;;;;5096787;28;20151;-74
2021/01/18 03:05:01;;;;;;;28.40;12.10;;;-7.10;45.30;;;;;;5078454;28;20106;-76
2021/01/18 03:07:46;;;;;;;25.07;13.10;;;-7.20;45.10;;;;;;5078088;28;20417;-74
2021/01/18 03:10:20;;;;;;;26.13;12.73;;;-7.10;45.20;;;;;;5095554;28;20044;-74
2021/01/18 03:12:56;;;;;;;30.53;13.30;;;-7.10;45.20;;;;;;5094916;28;20488;-74
2021/01/18 03:15:26;;;;;;;28.17;12.67;;;-7.10;44.90;;;;;;5094851;28;20455;-73
2021/01/18 03:17:57;;;;;;;29.70;13.17;;;-7.10;44.90;;;;;;5094623;28;20039;-73
2021/01/18 03:20:24;;;;;;;28.93;13.47;;;-7.10;44.90;;;;;;5077648;28;20067;-76
2021/01/18 03:22:50;;;;;;;26.40;12.47;;;-7.10;44.90;;;;;;5094471;28;20043;-74
2021/01/18 03:25:16;;;;;;;28.77;12.57;;;-7.10;45.00;;;;;;5096051;28;20028;-74
2021/01/18 03:27:50;;;;;;;27.73;12.93;;;-7.10;45.00;;;;;;5094604;28;20173;-70
2021/01/18 03:30:19;;;;;;;33.57;15.10;;;-7.10;45.00;;;;;;5096006;28;20039;-72
2021/01/18 03:32:48;;;;;;;27.33;12.60;;;-7.10;45.00;;;;;;5094174;28;20075;-73
2021/01/18 03:35:14;;;;;;;28.57;13.37;;;-7.00;45.10;;;;;;5095483;28;20161;-74
2021/01/18 03:37:40;;;;;;;29.70;13.30;;;-7.00;45.10;;;;;;5094949;28;20047;-72
2021/01/18 03:40:07;;;;;;;27.47;13.10;;;-7.10;45.00;;;;;;5094413;28;20048;-72
2021/01/18 03:42:33;;;;;;;26.93;12.70;;;-7.00;45.10;;;;;;5095392;28;20050;-72
2021/01/18 03:44:59;;;;;;;27.57;13.07;;;-7.10;45.10;;;;;;5095439;28;20404;-71
2021/01/18 03:47:25;;;;;;;29.57;13.73;;;-7.10;45.20;;;;;;5093902;28;20036;-68
2021/01/18 03:49:51;;;;;;;30.27;12.97;;;-7.10;45.10;;;;;;5095470;28;20392;-72
2021/01/18 03:52:17;;;;;;;27.23;12.13;;;-7.10;45.20;;;;;;5077137;28;20036;-72
2021/01/18 03:54:43;;;;;;;29.10;13.27;;;-7.10;45.20;;;;;;5076622;28;20052;-71
2021/01/18 03:57:09;;;;;;;26.70;12.20;;;-7.10;45.10;;;;;;5056834;28;20496;-71
2021/01/18 03:59:35;;;;;;;28.07;12.83;;;-7.10;45.20;;;;;;5040300;28;20040;-72
2021/01/18 04:02:01;;;;;;;25.30;12.13;;;-7.10;45.30;;;;;;5075037;28;20055;-71
2021/01/18 04:04:27;;;;;;;27.03;13.33;;;-7.10;45.20;;;;;;5057015;28;20040;-71
2021/01/18 04:06:53;;;;;;;27.87;12.57;;;-7.10;45.30;;;;;;5055834;28;20097;-74
2021/01/18 04:09:19;;;;;;;28.70;12.37;;;-7.10;45.20;;;;;;5056841;28;20036;-72
2021/01/18 04:11:45;;;;;;;30.77;13.13;;;-7.10;45.20;;;;;;5056847;28;20086;-71
2021/01/18 04:14:11;;;;;;;26.27;12.23;;;-7.10;45.20;;;;;;5074671;28;20041;-74
2021/01/18 04:16:43;;;;;;;26.17;12.43;;;-7.10;45.20;;;;;;5056453;28;20089;-71
2021/01/18 04:19:09;;;;;;;25.47;13.13;;;-7.10;45.10;;;;;;5040346;28;20040;-73
2021/01/18 04:21:38;;;;;;;25.80;12.77;;;-7.20;45.00;;;;;;5074535;28;20515;-70
2021/01/18 04:24:05;;;;;;;27.97;12.63;;;-7.10;45.10;;;;;;5056927;28;20041;-71
2021/01/18 04:26:31;;;;;;;29.23;13.97;;;-7.10;45.20;;;;;;5074323;28;20029;-73
2021/01/18 04:28:57;;;;;;;27.33;13.07;;;-7.10;45.20;;;;;;5056845;28;20377;-73
2021/01/18 04:31:24;;;;;;;30.00;13.57;;;-7.10;45.20;;;;;;5056179;28;20036;-81
2021/01/18 04:33:50;;;;;;;29.50;12.77;;;-7.10;45.90;;;;;;5056689;28;20156;-75
2021/01/18 04:36:15;;;;;;;34.63;14.37;;;-7.10;45.40;;;;;;5074367;28;20060;-79
2021/01/18 04:38:41;;;;;;;24.83;11.77;;;-7.10;45.30;;;;;;5056140;28;20044;-75
2021/01/18 04:41:08;;;;;;;28.53;12.67;;;-7.10;45.30;;;;;;5074321;28;20045;-77
2021/01/18 04:43:38;;;;;;;27.53;12.73;;;-7.10;45.40;;;;;;5039603;28;20143;-76
2021/01/18 04:46:10;;;;;;;30.40;14.53;;;-7.10;45.40;;;;;;5074202;28;20035;-76
2021/01/18 04:48:38;;;;;;;30.13;14.13;;;-7.10;45.40;;;;;;5055868;28;20040;-75
2021/01/18 04:51:13;;;;;;;28.30;13.70;;;-7.10;45.40;;;;;;5056132;28;20162;-76
2021/01/18 04:53:44;;;;;;;31.15;13.88;;;-7.10;45.50;;;;;;5055674;28;20065;-74
2021/01/18 04:56:57;;;;;;;31.57;14.67;;;-7.10;45.60;;;;;;5055833;28;20078;-76
2021/01/18 04:59:29;;;;;;;34.30;15.03;;;-7.00;45.50;;;;;;5022736;28;20063;-74
2021/01/18 05:02:12;;;;;;;28.97;13.93;;;-7.20;45.50;;;;;;5039315;28;20047;-77
2021/01/18 05:04:41;;;;;;;32.30;15.47;;;-7.00;45.50;;;;;;5055989;28;20399;-74
2021/01/18 05:07:36;;;;;;;32.37;15.40;;;-7.10;45.40;;;;;;5055784;28;20385;-76
2021/01/18 05:10:09;;;;;;;37.47;16.10;;;-7.10;45.30;;;;;;5038995;28;20071;-75
2021/01/18 05:12:39;;;;;;;34.57;14.73;;;-7.10;45.40;;;;;;5055396;28;20036;-75
2021/01/18 05:15:10;;;;;;;35.80;15.97;;;-7.10;45.40;;;;;;5055573;28;20493;-79
2021/01/18 05:17:46;;;;;;;34.43;15.27;;;-7.10;45.50;;;;;;5038502;28;20028;-73
2021/01/18 05:20:13;;;;;;;35.93;16.23;;;-7.10;45.50;;;;;;5039327;28;20082;-73
2021/01/18 05:22:55;;;;;;;35.20;16.97;;;-7.10;45.50;;;;;;5039005;28;20047;-75
2021/01/18 05:25:23;;;;;;;33.23;15.87;;;-7.00;45.50;;;;;;5038519;28;20032;-75
2021/01/18 05:28:06;;;;;;;35.33;16.37;;;-7.10;45.50;;;;;;5038555;28;20044;-75
2021/01/18 05:30:36;;;;;;;34.30;15.47;;;-7.10;45.70;;;;;;5055411;28;20044;-75
2021/01/18 05:33:06;;;;;;;35.70;16.17;;;-7.10;45.50;;;;;;5072944;28;20404;-75
2021/01/18 05:35:36;;;;;;;33.00;16.10;;;-7.10;45.40;;;;;;5055144;28;20036;-76
2021/01/18 05:38:12;;;;;;;38.13;15.57;;;-7.00;45.50;;;;;;5055005;28;20063;-75
2021/01/18 05:40:49;;;;;;;35.97;15.70;;;-7.00;45.70;;;;;;5055222;28;20048;-74
2021/01/18 05:43:16;;;;;;;35.63;15.80;;;-7.10;45.60;;;;;;5055224;28;20041;-76
2021/01/18 05:45:48;;;;;;;33.77;15.87;;;-7.10;45.50;;;;;;5055046;28;20050;-74
2021/01/18 05:48:25;;;;;;;32.17;15.77;;;-7.10;45.60;;;;;;5022305;28;20063;-74
2021/01/18 05:51:01;;;;;;;33.33;14.77;;;-7.10;45.80;;;;;;5054736;28;20036;-78
2021/01/18 05:53:29;;;;;;;31.83;15.20;;;-7.10;45.70;;;;;;5073323;28;20501;-77
2021/01/18 05:55:56;;;;;;;33.03;15.13;;;-7.10;45.60;;;;;;5055101;28;20127;-75
2021/01/18 05:58:33;;;;;;;29.23;13.87;;;-7.10;45.80;;;;;;5072763;28;20079;-75
2021/01/18 06:01:00;;;;;;;29.40;13.10;;;-7.10;45.80;;;;;;5054840;28;20043;-75
2021/01/18 06:03:30;;;;;;;31.03;15.17;;;-7.10;45.80;;;;;;5072381;28;20076;-77
2021/01/18 06:05:57;;;;;;;29.20;13.23;;;-7.00;45.90;;;;;;5072972;28;20028;-74
2021/01/18 06:08:24;;;;;;;29.70;14.03;;;-7.00;45.90;;;;;;5054601;28;20416;-74
2021/01/18 06:10:52;;;;;;;35.20;14.23;;;-7.00;46.00;;;;;;5054790;28;20401;-76
2021/01/18 06:13:34;;;;;;;30.07;14.30;;;-7.00;46.10;;;;;;5054594;28;20040;-75
2021/01/18 06:16:02;;;;;;;27.60;13.37;;;-6.90;46.10;;;;;;5072621;28;20040;-74
2021/01/18 06:18:36;;;;;;;37.23;15.47;;;-7.00;46.30;;;;;;5054665;28;20123;-75
2021/01/18 06:21:05;;;;;;;33.27;15.03;;;-7.00;46.50;;;;;;5038178;28;20051;-75
2021/01/18 06:23:31;;;;;;;34.67;14.80;;;-7.00;46.50;;;;;;5072503;28;20076;-79
2021/01/18 06:25:58;;;;;;;32.67;14.10;;;-7.00;46.60;;;;;;5038075;28;20032;-76
2021/01/18 06:28:32;;;;;;;35.87;14.77;;;-6.90;46.70;;;;;;5054263;28;20032;-76
2021/01/18 06:31:07;;;;;;;37.87;14.47;;;-6.90;46.80;;;;;;5058875;28;20040;-76
2021/01/18 06:33:50;;;;;;;29.70;14.57;;;-6.90;46.70;;;;;;5042051;28;20028;-76
2021/01/18 06:36:16;;;;;;;36.40;15.10;;;-6.80;46.70;;;;;;5076723;28;20127;-77
2021/01/18 06:38:44;;;;;;;39.03;15.80;;;-6.80;46.70;;;;;;5076111;28;20090;-77
2021/01/18 06:41:10;;;;;;;31.60;15.00;;;-6.80;46.50;;;;;;5076765;28;20079;-76
2021/01/18 06:43:44;;;;;;;34.30;14.77;;;-6.80;46.50;;;;;;5042249;28;20500;-78
2021/01/18 06:46:16;;;;;;;35.53;15.43;;;-6.80;46.60;;;;;;5059147;28;20036;-79
2021/01/18 06:48:48;;;;;;;54.37;21.10;;;-6.70;46.70;;;;;;5077124;28;20032;-79
2021/01/18 06:51:16;;;;;;;41.63;18.47;;;-6.60;46.80;;;;;;5058649;28;20115;-77
2021/01/18 06:53:44;;;;;;;47.33;19.13;;;-6.60;46.90;;;;;;5074982;28;20058;-75
2021/01/18 06:56:40;;;;;;;45.80;17.90;;;-6.60;47.00;;;;;;5096357;28;20119;-76
2021/01/18 06:59:44;;;;;;;45.90;18.13;;;-6.60;47.00;;;;;;5079438;28;20500;-77
2021/01/18 07:02:13;;;;;;;45.80;18.27;;;-6.50;47.00;;;;;;5096655;28;20047;-76
2021/01/18 07:04:45;;;;;;;39.53;17.00;;;-6.50;47.00;;;;;;5096056;28;20043;-77
2021/01/18 07:07:33;;;;;;;41.70;17.03;;;-6.40;47.00;;;;;;5094946;28;20112;-77
2021/01/18 07:10:10;;;;;;;34.90;15.63;;;-6.50;47.10;;;;;;5078110;28;20067;-77
2021/01/18 07:12:37;;;;;;;40.70;15.60;;;-6.40;47.10;;;;;;5096178;28;20054;-73
2021/01/18 07:15:08;;;;;;;33.67;14.60;;;-6.40;47.10;;;;;;5094952;28;20046;-77
2021/01/18 07:17:51;;;;;;;36.17;15.87;;;-6.30;47.10;;;;;;5096009;28;20028;-75
2021/01/18 07:20:28;;;;;;;36.73;15.13;;;-6.30;47.10;;;;;;5096134;28;20432;-75
2021/01/18 07:23:06;;;;;;;40.17;15.00;;;-6.30;47.20;;;;;;5094509;28;20067;-73
2021/01/18 07:25:39;;;;;;;38.13;15.77;;;-6.20;47.20;;;;;;5094553;28;20170;-76
2021/01/18 07:28:09;;;;;;;36.83;14.90;;;-6.20;47.30;;;;;;5094857;28;20028;-78
2021/01/18 07:30:37;;;;;;;39.57;16.60;;;-6.20;47.30;;;;;;5094850;28;20046;-78
2021/01/18 07:33:11;;;;;;;37.87;15.43;;;-6.20;47.30;;;;;;5095998;28;20046;-84
2021/01/18 07:35:38;;;;;;;36.57;16.90;;;-6.10;47.40;;;;;;5094478;28;20511;-76
2021/01/18 07:38:12;;;;;;;31.90;14.17;;;-6.10;47.40;;;;;;5077384;28;20043;-74
2021/01/18 07:40:39;;;;;;;35.07;14.53;;;-6.00;47.40;;;;;;5093176;28;20434;-76
2021/01/18 07:43:06;;;;;;;34.77;15.50;;;-6.00;47.40;;;;;;5095520;28;20040;-74
2021/01/18 07:45:32;;;;;;;34.57;14.67;;;-6.00;47.60;;;;;;5094437;28;20054;-75
2021/01/18 07:48:01;;;;;;;32.93;15.30;;;-6.00;47.50;;;;;;5094188;28;20088;-77
2021/01/18 07:50:28;;;;;;;34.53;15.73;;;-6.00;47.60;;;;;;5095425;28;20393;-83
2021/01/18 07:52:58;;;;;;;38.27;16.53;;;-5.90;47.60;;;;;;5091955;28;20064;-78
2021/01/18 07:55:24;;;;;;;38.33;16.57;;;-5.80;47.60;;;;;;5075259;28;20032;-78
2021/01/18 07:57:51;;;;;;;42.47;19.40;;;-5.80;47.50;;;;;;5057110;28;20040;-74
2021/01/18 08:00:19;;;;;;;39.73;18.67;;;-5.80;47.50;;;;;;5075048;28;20032;-84
2021/01/18 08:02:47;;;;;;;45.80;19.80;;;-5.70;47.40;;;;;;5040630;28;20412;-78
2021/01/18 08:05:27;;;;;;;49.97;20.43;;;-5.70;47.40;;;;;;5040783;28;20133;-72
2021/01/18 08:08:08;;;;;;;48.97;22.63;;;-5.60;47.30;;;;;;5058382;28;20094;-75
2021/01/18 08:11:13;;;;;;;45.53;22.60;;;-5.70;47.30;;;;;;5056872;28;20063;-72
2021/01/18 08:13:48;;;;;;;50.27;22.27;;;-5.70;47.30;;;;;;5056993;28;20081;-71
2021/01/18 08:16:25;;;;;;;48.95;22.63;;;-5.60;47.40;;;;;;5040309;28;20051;-75
2021/01/18 08:18:52;;;;;;;49.87;22.37;;;-5.60;47.30;;;;;;5074249;28;20040;-73
2021/01/18 08:21:57;;;;;;;54.03;24.83;;;-5.50;47.20;;;;;;5056454;28;20041;-72
2021/01/18 08:24:22;;;;;;;53.90;22.97;;;-5.40;47.20;;;;;;5006268;28;20115;-70
2021/01/18 08:27:10;;;;;;;57.83;25.33;;;-5.40;47.10;;;;;;5074107;28;20071;-70
2021/01/18 08:29:39;;;;;;;52.47;23.03;;;-5.40;47.20;;;;;;5074289;28;20036;-72
2021/01/18 08:32:30;;;;;;;54.43;24.57;;;-5.40;47.10;;;;;;5074426;28;20025;-70
2021/01/18 08:34:57;;;;;;;57.57;23.13;;;-5.30;47.20;;;;;;5039788;28;20033;-72
2021/01/18 08:37:24;;;;;;;58.63;24.90;;;-5.30;47.30;;;;;;5056844;28;20070;-72
2021/01/18 08:40:04;;;;;;;58.07;24.40;;;-5.30;47.20;;;;;;5056366;28;20052;-75
2021/01/18 08:42:32;;;;;;;55.40;23.90;;;-5.40;47.50;;;;;;5039710;28;20440;-72
2021/01/18 08:44:59;;;;;;;54.90;24.43;;;-5.30;47.60;;;;;;5056288;28;20032;-72
2021/01/18 08:47:35;;;;;;;66.30;27.03;;;-5.30;47.60;;;;;;5039514;28;20036;-71
2021/01/18 08:50:20;;;;;;;;;;;-5.30;47.60;;;;;;5056975;28;20071;-71
2021/01/18 08:52:47;;;;;;;61.37;25.83;;;-5.30;47.50;;;;;;5055293;28;20452;-70
2021/01/18 08:55:36;;;;;;;56.83;24.17;;;-5.20;47.50;;;;;;5056447;28;20045;-69
2021/01/18 08:58:04;;;;;;;62.37;25.53;;;-5.30;47.60;;;;;;5042801;28;20095;-70
2021/01/18 09:00:47;;;;;;;56.90;24.97;;;-5.30;47.70;;;;;;5055833;28;20042;-74
2021/01/18 09:03:20;;;;;;;59.30;26.17;;;-5.30;47.80;;;;;;5055809;28;20056;-75
2021/01/18 09:05:47;;;;;;;54.37;24.40;;;-5.30;47.70;;;;;;5039396;28;20044;-74
2021/01/18 09:08:17;;;;;;;51.83;23.13;;;-5.20;47.70;;;;;;5039157;28;20515;-77
2021/01/18 09:10:53;;;;;;;60.83;26.20;;;-5.20;47.60;;;;;;5056190;28;20039;-78
2021/01/18 09:13:23;;;;;;;53.27;24.50;;;-5.20;47.60;;;;;;5039310;28;20044;-74
2021/01/18 09:15:51;;;;;;;56.53;25.10;;;-5.20;47.60;;;;;;5055859;28;20481;-75
2021/01/18 09:18:17;;;;;;;58.17;25.10;;;-5.20;47.80;;;;;;5056010;28;20040;-73
2021/01/18 09:20:48;;;;;;;60.03;25.60;;;-5.20;47.80;;;;;;5055603;28;20078;-74
2021/01/18 09:23:14;;;;;;;54.17;25.23;;;-5.20;47.70;;;;;;5055540;28;20033;-78
2021/01/18 09:25:40;;;;;;;53.07;24.17;;;-5.10;48.30;;;;;;5055517;28;20044;-73
2021/01/18 09:28:13;;;;;;;55.13;24.17;;;-5.20;47.60;;;;;;5055184;28;20439;-74
2021/01/18 09:30:43;;;;;;;53.60;24.13;;;-5.10;47.60;;;;;;5055216;28;20038;-73
2021/01/18 09:33:11;;;;;;;57.83;24.27;;;-5.10;47.60;;;;;;5055453;28;20086;-75
2021/01/18 09:35:40;;;;;;;49.47;23.27;;;-5.10;47.60;;;;;;5038702;28;20507;-74
2021/01/18 09:38:07;;;;;;;48.80;23.10;;;-5.10;47.60;;;;;;5038550;28;20033;-76
2021/01/18 09:40:36;;;;;;;55.27;25.50;;;-5.10;47.70;;;;;;5054989;28;20041;-74
2021/01/18 09:43:03;;;;;;;54.93;25.17;;;-5.10;47.70;;;;;;5054988;28;20040;-73
2021/01/18 09:45:30;;;;;;;57.07;23.83;;;-5.10;47.80;;;;;;5038382;28;20040;-73
2021/01/18 09:48:04;;;;;;;54.10;25.00;;;-5.10;47.80;;;;;;5055085;28;20514;-72
2021/01/18 09:50:31;;;;;;;51.73;22.33;;;-5.10;47.70;;;;;;5055391;28;20044;-77
2021/01/18 09:52:57;;;;;;;47.60;23.20;;;-5.10;47.80;;;;;;5074582;28;20192;-75
2021/01/18 09:55:35;;;;;;;48.57;23.40;;;-5.10;47.80;;;;;;5072690;28;20037;-76
2021/01/18 09:58:12;;;;;;;49.50;22.27;;;-5.00;47.80;;;;;;5055144;28;20037;-74
2021/01/18 10:00:42;;;;;;;49.73;23.23;;;-5.10;47.80;;;;;;5054969;28;20044;-73
2021/01/18 10:03:09;;;;;;;52.97;23.80;;;-5.10;47.90;;;;;;5054443;28;20041;-72
2021/01/18 10:05:39;;;;;;;51.90;22.17;;;-5.10;48.00;;;;;;5054169;28;20032;-76
2021/01/18 10:08:12;;;;;;;51.90;22.43;;;-5.10;48.10;;;;;;5072352;28;20040;-71
2021/01/18 10:10:49;;;;;;;49.63;23.07;;;-5.20;48.10;;;;;;5054732;28;20047;-69
2021/01/18 10:13:19;;;;;;;48.67;23.13;;;-5.20;48.20;;;;;;5054857;28;20044;-71
2021/01/18 10:15:47;;;;;;;55.07;22.37;;;-5.20;48.20;;;;;;5037893;28;20070;-71
2021/01/18 10:18:34;;;;;;;50.00;23.60;;;-5.20;48.20;;;;;;5054497;28;20035;-70
2021/01/18 10:21:01;;;;;;;48.07;22.50;;;-5.10;48.30;;;;;;5054670;28;20144;-69
2021/01/18 10:23:35;;;;;;;50.87;21.43;;;-5.20;48.30;;;;;;5072665;28;20036;-71
2021/01/18 10:26:24;;;;;;;52.30;23.30;;;-5.20;48.40;;;;;;5072566;28;20097;-72
2021/01/18 10:28:55;;;;;;;49.90;21.63;;;-5.20;48.50;;;;;;5054366;28;20047;-70
2021/01/18 10:31:29;;;;;;;46.13;21.13;;;-5.20;48.40;;;;;;5038382;28;20032;-72
2021/01/18 10:34:13;;;;;;;46.93;21.57;;;-5.20;48.40;;;;;;5072701;28;20047;-69
2021/01/18 10:36:41;;;;;;;46.37;20.83;;;-5.10;48.60;;;;;;5072505;28;20041;-74
2021/01/18 10:39:07;;;;;;;52.50;23.43;;;-5.10;48.60;;;;;;5054637;28;20029;-74
2021/01/18 10:41:35;;;;;;;50.30;23.60;;;-5.10;48.60;;;;;;5054180;28;20028;-71
2021/01/18 10:44:07;;;;;;;58.23;26.07;;;-5.00;48.40;;;;;;5037845;28;20039;-71
2021/01/18 10:46:33;;;;;;;51.90;24.00;;;-5.00;48.20;;;;;;5072365;28;20036;-71
2021/01/18 10:49:01;;;;;;;51.23;23.43;;;-5.00;48.30;;;;;;5072139;28;20105;-70
2021/01/18 10:51:30;;;;;;;59.23;25.83;;;-5.00;48.20;;;;;;5054408;28;20389;-71
2021/01/18 10:54:01;;;;;;;54.20;26.13;;;-5.00;48.10;;;;;;5070375;28;20144;-71
2021/01/18 10:56:35;;;;;;;51.77;26.03;;;-5.10;48.00;;;;;;5091770;28;20064;-72
2021/01/18 10:59:03;;;;;;;53.33;26.53;;;-5.10;48.00;;;;;;5074086;28;20039;-72
2021/01/18 11:01:29;;;;;;;60.90;28.27;;;-5.20;48.00;;;;;;5091479;28;20101;-74
2021/01/18 11:04:03;;;;;;;62.93;29.80;;;-5.10;48.10;;;;;;5091051;28;20036;-73
2021/01/18 11:06:35;;;;;;;59.93;29.10;;;-5.10;48.10;;;;;;5092404;28;20543;-73
2021/01/18 11:09:02;;;;;;;61.50;28.97;;;-5.20;47.90;;;;;;5091400;28;20068;-77
2021/01/18 11:11:29;;;;;;;61.40;29.77;;;-5.10;48.00;;;;;;5091400;28;20036;-79
2021/01/18 11:14:03;;;;;;;67.87;31.50;;;-5.20;47.90;;;;;;5074465;28;20097;-74
2021/01/18 11:16:30;;;;;;;69.13;31.60;;;-5.20;47.90;;;;;;5094590;28;20618;-69
2021/01/18 11:19:04;;;;;;;73.63;33.47;;;-5.20;48.10;;;;;;5077644;28;20036;-73
2021/01/18 11:21:33;;;;;;;74.47;33.70;;;-5.20;48.20;;;;;;5078464;28;20066;-78
2021/01/18 11:23:59;;;;;;;74.00;34.40;;;-5.20;48.00;;;;;;5077850;28;20074;-72
2021/01/18 11:26:25;;;;;;;78.53;36.07;;;-5.20;48.00;;;;;;5077733;28;20042;-75
2021/01/18 11:28:52;;;;;;;76.00;37.43;;;-5.30;48.10;;;;;;5077739;28;20035;-72
2021/01/18 11:31:18;;;;;;;82.90;39.33;;;-5.20;48.10;;;;;;5096153;28;20046;-70
2021/01/18 11:33:45;;;;;;;86.97;40.90;;;-5.20;48.00;;;;;;5095465;28;20127;-74
2021/01/18 11:36:11;;;;;;;79.93;39.93;;;-5.30;47.90;;;;;;5095809;28;20028;-74
2021/01/18 11:38:38;;;;;;;86.90;40.67;;;-5.40;48.20;;;;;;5095833;28;20048;-70
2021/01/18 11:41:05;;;;;;;86.03;40.87;;;-5.40;48.40;;;;;;5095644;28;20032;-69
2021/01/18 11:43:34;;;;;;;93.43;43.80;;;-5.40;48.50;;;;;;5095611;28;20111;-75
2021/01/18 11:46:02;;;;;;;94.23;43.87;;;-5.30;48.50;;;;;;5094225;28;20082;-76
2021/01/18 11:48:31;;;;;;;96.50;45.43;;;-5.30;48.20;;;;;;5077698;28;20123;-73
2021/01/18 11:50:57;;;;;;;98.30;45.57;;;-5.30;48.20;;;;;;5078020;28;20038;-77
2021/01/18 11:53:23;;;;;;;97.07;45.27;;;-5.30;48.10;;;;;;5077320;28;20416;-77
2021/01/18 11:55:53;;;;;;;101.60;46.77;;;-5.30;48.10;;;;;;5094490;28;20039;-78
2021/01/18 11:58:19;;;;;;;93.57;46.03;;;-5.30;48.10;;;;;;5094035;28;20087;-75
2021/01/18 12:00:55;;;;;;;;;;;;;;;;;;;;;
2021/01/18 12:03:56;;;;;;;;;;;;;;;;;;;;;
2021/01/18 12:07:00;;;;;;;94.97;45.63;;;-5.20;48.40;;;;;;5093948;28;20046;-74
2021/01/18 12:09:45;;;;;;;;;;;;;;;;;;;;;
2021/01/18 12:19:32;;;;;;;89.23;43.03;;;-5.30;48.50;;;;;;5061457;28;20098;-72
2021/01/18 12:25:31;;;;;;;89.47;42.93;;;-5.30;48.50;;;;;;5080661;28;20035;-73
2021/01/18 12:28:04;;;;;;;96.53;43.50;;;-5.40;48.40;;;;;;5094070;28;20523;-72
2021/01/18 12:30:30;;;;;;;98.30;46.13;;;-5.40;48.50;;;;;;5077101;28;20531;-69
2021/01/18 12:32:57;;;;;;;100.70;45.37;;;-5.40;48.60;;;;;;5076708;28;20488;-69
2021/01/18 12:35:23;;;;;;;93.10;45.73;;;-5.40;48.70;;;;;;5093262;28;20122;-72
2021/01/18 12:37:50;;;;;;;95.67;43.60;;;-5.40;48.90;;;;;;5094714;28;20113;-68
2021/01/18 12:40:16;;;;;;;94.90;45.00;;;-5.50;48.90;;;;;;5094536;28;20040;-69
2021/01/18 12:42:47;;;;;;;93.67;45.77;;;-5.50;49.00;;;;;;5094000;28;20033;-67
2021/01/18 12:45:15;;;;;;;89.90;43.43;;;-5.40;49.10;;;;;;5094117;28;20471;-68
2021/01/18 12:47:42;;;;;;;97.97;43.97;;;-5.40;49.10;;;;;;5093236;28;20036;-72
2021/01/18 12:50:09;;;;;;;93.50;44.47;;;-5.40;49.20;;;;;;5094160;28;20479;-72
2021/01/18 12:52:39;;;;;;;96.77;43.40;;;-5.40;49.30;;;;;;5076249;28;20036;-71
2021/01/18 12:55:05;;;;;;;95.90;45.60;;;-5.40;49.40;;;;;;5092833;28;20056;-69
2021/01/18 12:57:31;;;;;;;96.33;46.97;;;-5.40;49.40;;;;;;5094111;28;20081;-69
2021/01/18 12:59:57;;;;;;;105.07;48.40;;;-5.40;49.30;;;;;;5092753;28;20126;-67
2021/01/18 13:02:24;;;;;;;99.80;45.80;;;-5.40;50.00;;;;;;5093899;28;20036;-68
2021/01/18 13:04:52;;;;;;;99.33;46.37;;;-5.40;49.40;;;;;;5092859;28;20043;-71